»·PEaware :: N815M KSAC-KRDD

N815M :: KSAC-KRDD

FLIGHT INFORMATION

Flight Status: Arrived
Operator: Privately registered:
United States
More flights under this callsign
Pilot: Robert C. (30425)
Aircraft: BEECH AIRCRAFT DEBONAIR BONANZA
(BE33)
More flights by this aircraft type
Origin: KSAC Sacramento Executive
United States
Destination: KRDD Redding Mun
United States
More flights between these airports :: More routes between these airports
Route: SAC ILA RBL
File this flight plan on PilotEdge
Remarks:
Altitude:
(Current/Filed)
5,500ft
Speed:
(Current/Filed)
150kts
Departed: 25-Nov-20 10:23 PM
Arrived: 25-Nov-20 11:24 PM
Distance/Time
Traveled:
117nm/1:01
Distance/Time
To Go:
Arrived

Flight Plot

Page will automatically refresh every two minutes.

Flight plan parsing failed; only flown route is shown


Map Options




Map Legend


Flown Route
Filed Route
Departure Airport
Arrival Airport
Navaid (VOR, NDB)
Fix

Horizontal Profiles

Position Reports

Time Latitude Longitude Heading Altitude Ground
Speed
25-Nov-20 22:07 38.514685 -121.499313 223 23ft 0kts
25-Nov-20 22:08 38.514685 -121.499313 223 23ft 0kts
25-Nov-20 22:09 38.514685 -121.499313 223 23ft 0kts
25-Nov-20 22:10 38.514685 -121.499313 223 23ft 0kts
25-Nov-20 22:11 38.514659 -121.499331 208 23ft 0kts
25-Nov-20 22:12 38.514851 -121.499416 25 23ft 6kts
25-Nov-20 22:13 38.515022 -121.498811 109 23ft 0kts
25-Nov-20 22:14 38.515022 -121.498811 109 23ft 0kts
25-Nov-20 22:15 38.514980 -121.498668 115 23ft 11kts
25-Nov-20 22:16 38.512658 -121.496208 212 22ft 7kts
25-Nov-20 22:17 38.507592 -121.500409 212 20ft 25kts
25-Nov-20 22:18 38.506194 -121.501081 165 19ft 0kts
25-Nov-20 22:19 38.506194 -121.501081 165 19ft 0kts
25-Nov-20 22:20 38.506194 -121.501081 165 19ft 0kts
25-Nov-20 22:21 38.505928 -121.500159 34 19ft 17kts
25-Nov-20 22:22 38.523298 -121.485954 25 450ft 81kts
25-Nov-20 22:23 38.525195 -121.497136 212 1112ft 89kts
25-Nov-20 22:24 38.499447 -121.515923 213 1646ft 138kts
25-Nov-20 22:25 38.461339 -121.542844 211 1851ft 167kts
25-Nov-20 22:26 38.431640 -121.583794 273 1734ft 162kts
25-Nov-20 22:27 38.459732 -121.624174 325 1786ft 157kts
25-Nov-20 22:28 38.496893 -121.653167 328 1701ft 154kts
25-Nov-20 22:29 38.533964 -121.679541 331 1700ft 150kts
25-Nov-20 22:30 38.571188 -121.704155 331 1700ft 150kts
25-Nov-20 22:31 38.608211 -121.728568 331 1697ft 150kts
25-Nov-20 22:32 38.645330 -121.752966 331 1694ft 149kts
25-Nov-20 22:33 38.683012 -121.777674 331 1693ft 149kts
25-Nov-20 22:34 38.720034 -121.801913 331 1692ft 149kts
25-Nov-20 22:35 38.756286 -121.825672 331 2196ft 143kts
25-Nov-20 22:36 38.791229 -121.848467 332 2984ft 139kts
25-Nov-20 22:37 38.825087 -121.870568 332 3771ft 134kts
25-Nov-20 22:38 38.857728 -121.891900 332 4558ft 129kts
25-Nov-20 22:39 38.888974 -121.912394 332 5342ft 123kts
25-Nov-20 22:40 38.920640 -121.933170 339 5698ft 140kts
25-Nov-20 22:41 38.959817 -121.948903 342 5692ft 150kts
25-Nov-20 22:42 38.999877 -121.965508 342 5686ft 151kts
25-Nov-20 22:44 39.039770 -121.982716 342 5681ft 151kts
25-Nov-20 22:45 39.080807 -121.993903 349 5680ft 150kts
25-Nov-20 22:46 39.122765 -122.004645 349 5469ft 159kts
25-Nov-20 22:47 39.165341 -122.015530 349 5426ft 154kts
25-Nov-20 22:48 39.207054 -122.026261 349 5427ft 152kts
25-Nov-20 22:49 39.248500 -122.036665 349 5435ft 155kts
25-Nov-20 22:50 39.291401 -122.047180 349 5440ft 157kts
25-Nov-20 22:51 39.334351 -122.057419 349 5452ft 157kts
25-Nov-20 22:52 39.378031 -122.067521 349 5464ft 157kts
25-Nov-20 22:53 39.421158 -122.077327 349 5460ft 157kts
25-Nov-20 22:54 39.464335 -122.086997 349 5497ft 157kts
25-Nov-20 22:55 39.507488 -122.096556 349 5514ft 157kts
25-Nov-20 22:56 39.550586 -122.106033 349 5534ft 157kts
25-Nov-20 22:57 39.593697 -122.115505 349 5544ft 157kts
25-Nov-20 22:58 39.636938 -122.125003 349 5551ft 157kts
25-Nov-20 22:59 39.680033 -122.134466 349 5555ft 157kts
25-Nov-20 23:00 39.723380 -122.143973 349 5554ft 157kts
25-Nov-20 23:01 39.766462 -122.153408 349 5561ft 157kts
25-Nov-20 23:01 39.802078 -122.163909 343 5555ft 157kts
25-Nov-20 23:03 39.851254 -122.182382 343 5549ft 158kts
25-Nov-20 23:03 39.886586 -122.195749 343 5551ft 158kts
25-Nov-20 23:05 39.936633 -122.211846 347 5547ft 159kts
25-Nov-20 23:06 39.979986 -122.224001 347 5547ft 160kts
25-Nov-20 23:06 40.017031 -122.230490 354 5552ft 160kts
25-Nov-20 23:08 40.069160 -122.236094 354 5531ft 161kts
25-Nov-20 23:08 40.106257 -122.233312 11 5491ft 163kts
25-Nov-20 23:09 40.150893 -122.229651 357 5549ft 158kts
25-Nov-20 23:10 40.195372 -122.231912 357 5559ft 161kts
25-Nov-20 23:11 40.240200 -122.233305 357 5553ft 161kts
25-Nov-20 23:12 40.282404 -122.253277 335 5534ft 163kts
25-Nov-20 23:13 40.322328 -122.278759 334 5216ft 160kts
25-Nov-20 23:14 40.362217 -122.304495 334 4629ft 158kts
25-Nov-20 23:15 40.403579 -122.321440 356 3944ft 154kts
25-Nov-20 23:16 40.443493 -122.324242 357 3043ft 99kts
25-Nov-20 23:17 40.470851 -122.326340 357 1917ft 104kts
25-Nov-20 23:18 40.497374 -122.328221 356 1494ft 83kts
25-Nov-20 23:19 40.520202 -122.329845 356 1500ft 83kts
25-Nov-20 23:20 40.542560 -122.321247 74 1058ft 100kts
25-Nov-20 23:21 40.531190 -122.295210 165 894ft 97kts
25-Nov-20 23:22 40.510455 -122.294631 170 500ft 48kts
25-Nov-20 23:23 40.510310 -122.296362 161 498ft 10kts
25-Nov-20 23:24 40.509093 -122.298790 345 499ft 20kts
25-Nov-20 23:25 40.511080 -122.296313 132 499ft 46kts
25-Nov-20 23:26 40.487504 -122.277218 162 1600ft 115kts
25-Nov-20 23:27 40.454065 -122.268908 171 2916ft 134kts
25-Nov-20 23:28 40.416295 -122.253449 161 3559ft 160kts
25-Nov-20 23:29 40.372421 -122.249523 207 3822ft 171kts

Navigation Log

Ident Type
Flight plan parsing failed, navigation log unavailable